Time;durP1;ratioP1;P1;durP2;ratioP2;P2;SDS_P1;SDS_P2;PMS_P1;PMS_P2;Temp;Humidity;BMP_temperature;BMP_pressure;BME280_temperature;BME280_humidity;BME280_pressure;Samples;Min_cycle;Max_cycle;Signal;HPM_P1;HPM_P2
2022/09/30 00:03:29;;;;;;;42.08;18.50;;;;;;;;;;10388370;22;20445;-87
2022/09/30 00:07:31;;;;;;;39.22;17.75;;;;;;;;;;10361779;22;20019;-87
2022/09/30 00:11:37;;;;;;;36.22;17.30;;;;;;;;;;10388433;22;20321;-87
2022/09/30 00:15:41;;;;;;;31.35;16.35;;;;;;;;;;10405316;22;20073;-88
2022/09/30 00:19:43;;;;;;;39.40;16.45;;;;;;;;;;10387945;22;20103;-86
2022/09/30 00:23:46;;;;;;;43.65;18.48;;;;;;;;;;10388350;22;20027;-86
2022/09/30 00:27:48;;;;;;;34.28;16.63;;;;;;;;;;10388247;22;20019;-87
2022/09/30 00:31:52;;;;;;;39.65;17.02;;;;;;;;;;10388155;22;20016;-87
2022/09/30 00:35:55;;;;;;;41.70;17.65;;;;;;;;;;10388068;22;20104;-87
2022/09/30 00:39:57;;;;;;;39.97;17.90;;;;;;;;;;10387605;22;20073;-87
2022/09/30 00:44:00;;;;;;;28.92;13.80;;;;;;;;;;10387372;22;20019;-87
2022/09/30 00:48:11;;;;;;;30.40;14.13;;;;;;;;;;10387094;22;20015;-87
2022/09/30 00:52:14;;;;;;;30.90;14.37;;;;;;;;;;10403003;22;20094;-87
2022/09/30 00:56:21;;;;;;;27.58;13.30;;;;;;;;;;10387399;22;20023;-87
2022/09/30 01:00:23;;;;;;;27.40;13.43;;;;;;;;;;10403640;22;20019;-88
2022/09/30 01:04:30;;;;;;;29.20;13.32;;;;;;;;;;10386933;22;20300;-88
2022/09/30 01:08:37;;;;;;;40.72;15.85;;;;;;;;;;10403885;22;20074;-88
2022/09/30 01:12:40;;;;;;;30.33;13.52;;;;;;;;;;10387502;22;20012;-86
2022/09/30 01:16:56;;;;;;;29.38;13.65;;;;;;;;;;10386628;22;20095;-86
2022/09/30 01:21:31;;;;;;;37.83;15.10;;;;;;;;;;10403622;22;20065;-88
2022/09/30 01:25:59;;;;;;;25.10;13.38;;;;;;;;;;10403731;22;20019;-86
2022/09/30 01:30:13;;;;;;;30.98;12.70;;;;;;;;;;10403486;22;20047;-86
2022/09/30 01:34:32;;;;;;;29.35;11.63;;;;;;;;;;10402863;22;20491;-88
2022/09/30 01:38:47;;;;;;;25.08;11.27;;;;;;;;;;10402316;22;20020;-87
2022/09/30 01:42:56;;;;;;;30.25;13.50;;;;;;;;;;10403327;22;20016;-86
2022/09/30 01:47:06;;;;;;;25.75;11.70;;;;;;;;;;10403131;22;20019;-87
2022/09/30 01:51:17;;;;;;;29.70;13.55;;;;;;;;;;10403364;22;20099;-87
2022/09/30 01:55:24;;;;;;;29.15;12.82;;;;;;;;;;10405935;22;20020;-87
2022/09/30 01:59:32;;;;;;;31.05;12.57;;;;;;;;;;10406410;22;20026;-88
2022/09/30 02:03:38;;;;;;;34.15;11.18;;;;;;;;;;10405506;22;20051;-88
2022/09/30 02:07:49;;;;;;;27.60;11.65;;;;;;;;;;10407979;22;20015;-87
2022/09/30 02:11:56;;;;;;;23.90;12.20;;;;;;;;;;10389675;22;20023;-87
2022/09/30 02:16:11;;;;;;;28.95;12.57;;;;;;;;;;10406323;22;20090;-87
2022/09/30 02:20:18;;;;;;;26.45;12.30;;;;;;;;;;10390983;22;20031;-87
2022/09/30 02:24:25;;;;;;;33.60;14.95;;;;;;;;;;10406863;22;20448;-87
2022/09/30 02:28:29;;;;;;;41.85;20.05;;;;;;;;;;10405528;22;20463;-87
2022/09/30 02:32:37;;;;;;;44.03;22.40;;;;;;;;;;10389105;22;20019;-88
2022/09/30 02:36:45;;;;;;;30.65;14.88;;;;;;;;;;10406933;22;20023;-87
2022/09/30 02:40:53;;;;;;;36.35;16.27;;;;;;;;;;10406268;22;20015;-86
2022/09/30 02:45:01;;;;;;;28.85;15.90;;;;;;;;;;10406559;22;20042;-86
2022/09/30 02:49:08;;;;;;;33.72;17.02;;;;;;;;;;10406766;22;20020;-86
2022/09/30 02:53:26;;;;;;;33.45;14.88;;;;;;;;;;10406699;22;20015;-86
2022/09/30 02:57:38;;;;;;;28.92;12.68;;;;;;;;;;10406642;22;20019;-86
2022/09/30 03:01:40;;;;;;;24.87;11.33;;;;;;;;;;10406491;22;20015;-87
2022/09/30 03:05:44;;;;;;;19.20;9.48;;;;;;;;;;10389415;22;20024;-87
2022/09/30 03:09:46;;;;;;;31.38;11.65;;;;;;;;;;10389472;22;20045;-86
2022/09/30 03:14:23;;;;;;;35.17;11.95;;;;;;;;;;10389489;22;20094;-86
2022/09/30 03:18:49;;;;;;;28.80;11.15;;;;;;;;;;10398276;22;20019;-87
2022/09/30 03:23:10;;;;;;;23.08;10.35;;;;;;;;;;10406232;22;20115;-86
2022/09/30 03:27:24;;;;;;;28.85;13.60;;;;;;;;;;10406116;22;20023;-86
2022/09/30 03:31:37;;;;;;;42.28;22.58;;;;;;;;;;10406076;22;20028;-87
2022/09/30 03:35:45;;;;;;;;;;;;;;;;;;10406543;22;20091;-87
2022/09/30 03:39:55;;;;;;;29.90;14.85;;;;;;;;;;10405854;22;19915;-86
2022/09/30 03:44:04;;;;;;;30.52;12.50;;;;;;;;;;10405905;22;20058;-86
2022/09/30 03:48:12;;;;;;;30.58;13.65;;;;;;;;;;10406342;22;20513;-85
2022/09/30 03:52:15;;;;;;;21.00;11.30;;;;;;;;;;10406695;22;20016;-86
2022/09/30 03:56:25;;;;;;;24.40;10.73;;;;;;;;;;10389578;22;20043;-83
2022/09/30 04:00:28;;;;;;;22.67;11.15;;;;;;;;;;10406357;22;20050;-86
2022/09/30 04:04:32;;;;;;;25.92;11.93;;;;;;;;;;10389238;22;20019;-87
2022/09/30 04:08:34;;;;;;;25.70;11.82;;;;;;;;;;10388661;22;20022;-85
2022/09/30 04:12:36;;;;;;;24.27;11.00;;;;;;;;;;10388911;22;20016;-85
2022/09/30 04:16:38;;;;;;;29.88;11.55;;;;;;;;;;10388259;22;20020;-85
2022/09/30 04:20:42;;;;;;;17.98;9.85;;;;;;;;;;10387569;22;20015;-87
2022/09/30 04:24:46;;;;;;;23.48;10.90;;;;;;;;;;10388248;22;20026;-85
2022/09/30 04:28:49;;;;;;;26.88;11.80;;;;;;;;;;10388301;22;20026;-86
2022/09/30 04:32:51;;;;;;;38.58;16.75;;;;;;;;;;10388060;22;20020;-86
2022/09/30 04:36:55;;;;;;;48.92;20.70;;;;;;;;;;10388209;22;20452;-86
2022/09/30 04:40:57;;;;;;;43.65;19.13;;;;;;;;;;10388039;22;20059;-85
2022/09/30 04:45:01;;;;;;;26.55;12.95;;;;;;;;;;10385828;22;20015;-86
2022/09/30 04:49:04;;;;;;;23.77;10.65;;;;;;;;;;10386864;22;20459;-87
2022/09/30 04:53:13;;;;;;;23.50;12.48;;;;;;;;;;10387880;22;20403;-86
2022/09/30 04:57:16;;;;;;;21.95;10.75;;;;;;;;;;10402310;22;20322;-87
2022/09/30 05:01:20;;;;;;;32.05;14.35;;;;;;;;;;10386632;22;20080;-87
2022/09/30 05:05:22;;;;;;;34.85;17.70;;;;;;;;;;10386113;22;20043;-87
2022/09/30 05:09:26;;;;;;;31.65;14.23;;;;;;;;;;10387512;22;20348;-87
2022/09/30 05:13:32;;;;;;;29.83;15.30;;;;;;;;;;10386824;22;20077;-86
2022/09/30 05:17:35;;;;;;;30.23;16.27;;;;;;;;;;10400139;22;20103;-87
2022/09/30 05:21:37;;;;;;;26.00;15.25;;;;;;;;;;10387200;22;20022;-86
2022/09/30 05:25:41;;;;;;;39.42;20.08;;;;;;;;;;10386680;22;20095;-85
2022/09/30 05:29:43;;;;;;;33.90;15.27;;;;;;;;;;10386262;22;20437;-86
2022/09/30 05:33:46;;;;;;;37.00;18.63;;;;;;;;;;10384538;22;20016;-86
2022/09/30 05:37:49;;;;;;;21.48;12.13;;;;;;;;;;10386507;22;20019;-85
2022/09/30 05:41:53;;;;;;;24.33;13.43;;;;;;;;;;10385920;22;20093;-85
2022/09/30 05:45:56;;;;;;;29.23;15.32;;;;;;;;;;10386984;22;20486;-86
2022/09/30 05:49:58;;;;;;;38.10;24.95;;;;;;;;;;10385849;22;20023;-86
2022/09/30 05:54:01;;;;;;;40.00;24.08;;;;;;;;;;10387169;22;20016;-85
2022/09/30 05:58:05;;;;;;;39.47;22.40;;;;;;;;;;10387095;22;20095;-85
2022/09/30 06:02:09;;;;;;;31.67;16.23;;;;;;;;;;10386968;22;20084;-86
2022/09/30 06:06:12;;;;;;;33.53;15.05;;;;;;;;;;10387042;22;20020;-86
2022/09/30 06:10:14;;;;;;;33.97;15.20;;;;;;;;;;10387104;22;20073;-86
2022/09/30 06:14:18;;;;;;;49.53;19.77;;;;;;;;;;10386929;22;20099;-86
2022/09/30 06:18:21;;;;;;;47.30;19.77;;;;;;;;;;10386576;22;20019;-86
2022/09/30 06:22:23;;;;;;;35.78;17.48;;;;;;;;;;10386974;22;20023;-86
2022/09/30 06:26:26;;;;;;;43.10;18.60;;;;;;;;;;10387058;22;20016;-86
2022/09/30 06:30:30;;;;;;;32.45;16.08;;;;;;;;;;10386965;22;20091;-86
2022/09/30 06:34:33;;;;;;;36.47;16.58;;;;;;;;;;10386800;22;20478;-86
2022/09/30 06:38:38;;;;;;;29.23;13.48;;;;;;;;;;10387511;22;20019;-86
2022/09/30 06:42:41;;;;;;;33.35;15.23;;;;;;;;;;10406845;22;20023;-86
2022/09/30 06:46:45;;;;;;;29.73;15.07;;;;;;;;;;10390022;22;20064;-87
2022/09/30 06:50:47;;;;;;;30.92;14.93;;;;;;;;;;10389844;22;20387;-86
2022/09/30 06:54:50;;;;;;;29.90;15.82;;;;;;;;;;10389975;22;20031;-87
2022/09/30 06:58:55;;;;;;;29.75;16.80;;;;;;;;;;10389708;22;20073;-87
2022/09/30 07:03:00;;;;;;;28.88;14.93;;;;;;;;;;10406445;22;20026;-86
2022/09/30 07:07:03;;;;;;;26.08;13.10;;;;;;;;;;10389571;22;20016;-87
2022/09/30 07:11:10;;;;;;;29.85;14.38;;;;;;;;;;10389465;22;20096;-86
2022/09/30 07:15:13;;;;;;;29.75;16.48;;;;;;;;;;10406295;22;20022;-86
2022/09/30 07:19:21;;;;;;;28.60;16.90;;;;;;;;;;10389059;22;20031;-87
2022/09/30 07:23:26;;;;;;;30.95;16.23;;;;;;;;;;10406131;22;20022;-87
2022/09/30 07:27:31;;;;;;;26.98;14.43;;;;;;;;;;10406248;22;20159;-86
2022/09/30 07:31:34;;;;;;;34.42;23.40;;;;;;;;;;10389171;22;20098;-87
2022/09/30 07:35:38;;;;;;;51.80;40.10;;;;;;;;;;10389049;22;20042;-86
2022/09/30 07:39:40;;;;;;;32.08;16.77;;;;;;;;;;10389041;22;20022;-87
2022/09/30 07:43:45;;;;;;;31.15;15.90;;;;;;;;;;10388990;22;20020;-86
2022/09/30 07:47:47;;;;;;;24.85;13.93;;;;;;;;;;10388776;22;20329;-86
2022/09/30 07:51:53;;;;;;;22.90;13.57;;;;;;;;;;10388860;22;20027;-87
2022/09/30 07:55:55;;;;;;;26.98;14.23;;;;;;;;;;10405718;22;20098;-87
2022/09/30 07:59:58;;;;;;;18.20;9.25;;;;;;;;;;10388641;22;20019;-87
2022/09/30 08:21:07;;;;;;;20.10;14.55;;;;;;;;;;8391058;28;20432;-85
2022/09/30 08:25:10;;;;;;;16.80;10.43;;;;;;;;;;8390395;28;20060;-84
2022/09/30 08:29:13;;;;;;;19.63;11.52;;;;;;;;;;8390890;28;20045;-84
2022/09/30 08:33:27;;;;;;;15.13;9.27;;;;;;;;;;8389573;28;20057;-87
2022/09/30 08:37:41;;;;;;;15.98;9.80;;;;;;;;;;8386545;28;20049;-85
2022/09/30 08:42:22;;;;;;;12.05;7.80;;;;;;;;;;8389085;28;20392;-85
2022/09/30 08:50:49;;;;;;;15.82;9.60;;;;;;;;;;8798188;22;20064;-88
2022/09/30 08:54:55;;;;;;;13.73;9.02;;;;;;;;;;8413431;28;20048;-87
2022/09/30 08:59:05;;;;;;;15.63;9.80;;;;;;;;;;8403928;28;20110;-83
2022/09/30 09:03:13;;;;;;;14.65;8.93;;;;;;;;;;8391352;28;20052;-84
2022/09/30 09:07:25;;;;;;;20.58;12.52;;;;;;;;;;8403138;28;20052;-84
2022/09/30 09:11:42;;;;;;;18.08;9.80;;;;;;;;;;8382424;28;20040;-85
2022/09/30 09:15:53;;;;;;;15.77;8.77;;;;;;;;;;8384228;28;20040;-85
2022/09/30 09:20:04;;;;;;;16.27;9.87;;;;;;;;;;8370895;28;20061;-85
2022/09/30 09:32:40;;;;;;;12.57;6.25;;;;;;;;;;8461318;22;20049;-86
2022/09/30 09:37:05;;;;;;;11.82;7.93;;;;;;;;;;8296288;28;20354;-84
2022/09/30 09:41:29;;;;;;;18.95;9.35;;;;;;;;;;8281825;28;20073;-85
2022/09/30 09:45:40;;;;;;;19.85;10.00;;;;;;;;;;8288416;28;20390;-84
2022/09/30 09:49:46;;;;;;;23.48;10.15;;;;;;;;;;8296041;28;20057;-85
2022/09/30 09:53:51;;;;;;;10.85;6.43;;;;;;;;;;8293128;28;20540;-87
2022/09/30 09:58:08;;;;;;;11.55;6.65;;;;;;;;;;8289522;28;20113;-84
2022/09/30 10:02:24;;;;;;;13.40;7.57;;;;;;;;;;8295962;28;20057;-88
2022/09/30 10:06:44;;;;;;;14.60;7.95;;;;;;;;;;8296258;28;20050;-87
2022/09/30 10:10:52;;;;;;;10.43;6.20;;;;;;;;;;8292075;28;20513;-84
2022/09/30 10:15:13;;;;;;;13.13;7.70;;;;;;;;;;8278365;28;20077;-85
2022/09/30 10:19:25;;;;;;;29.10;13.30;;;;;;;;;;8284235;28;20058;-86
2022/09/30 10:23:31;;;;;;;20.85;10.30;;;;;;;;;;8276535;28;20054;-86
2022/09/30 10:27:34;;;;;;;15.57;7.70;;;;;;;;;;8292462;28;20069;-85
2022/09/30 10:31:45;;;;;;;13.65;7.68;;;;;;;;;;8292496;28;20066;-85
2022/09/30 10:36:00;;;;;;;19.50;10.43;;;;;;;;;;8285308;28;20091;-85
2022/09/30 10:40:09;;;;;;;13.93;8.65;;;;;;;;;;8284700;28;20788;-86
2022/09/30 10:44:17;;;;;;;17.67;11.13;;;;;;;;;;8294018;28;20049;-84
2022/09/30 10:48:25;;;;;;;15.82;9.55;;;;;;;;;;8263449;28;20058;-86
2022/09/30 10:52:29;;;;;;;18.38;11.35;;;;;;;;;;8293547;28;20042;-85
2022/09/30 10:56:45;;;;;;;36.65;23.63;;;;;;;;;;8289882;28;20041;-86
2022/09/30 11:11:10;;;;;;;18.83;9.60;;;;;;;;;;8268505;28;20052;-85
2022/09/30 11:15:26;;;;;;;19.15;11.75;;;;;;;;;;8278749;28;20305;-85
2022/09/30 11:19:32;;;;;;;16.65;10.07;;;;;;;;;;8260405;28;20048;-86
2022/09/30 11:23:43;;;;;;;21.08;10.82;;;;;;;;;;8263928;28;20490;-88
2022/09/30 11:28:09;;;;;;;16.20;10.30;;;;;;;;;;8988491;23;20054;-87
2022/09/30 11:32:35;;;;;;;19.52;11.25;;;;;;;;;;8291322;28;20053;-85
2022/09/30 11:36:46;;;;;;;22.10;12.85;;;;;;;;;;8291142;28;20136;-86
2022/09/30 11:49:25;;;;;;;20.85;13.02;;;;;;;;;;8744657;22;20066;-88
2022/09/30 11:54:20;;;;;;;22.25;13.52;;;;;;;;;;8519779;23;20061;-88
2022/09/30 11:58:26;;;;;;;23.95;12.88;;;;;;;;;;8288440;28;20056;-86
2022/09/30 12:23:20;;;;;;;19.30;11.82;;;;;;;;;;8123962;26;20047;-87
2022/09/30 12:37:49;;;;;;;26.33;14.20;;;;;;;;;;8290361;23;20083;-87
2022/09/30 12:47:14;;;;;;;22.25;12.23;;;;;;;;;;8073068;29;20088;-89
2022/09/30 12:51:27;;;;;;;22.08;12.85;;;;;;;;;;8160739;23;20673;-89
2022/09/30 12:55:42;;;;;;;18.75;10.40;;;;;;;;;;8154293;29;20119;-89
2022/09/30 13:04:41;;;;;;;24.45;13.20;;;;;;;;;;9170814;23;20137;-88
2022/09/30 13:13:22;;;;;;;17.58;10.65;;;;;;;;;;8454805;23;20142;-89
2022/09/30 13:17:30;;;;;;;17.40;10.52;;;;;;;;;;8223766;28;20101;-87
2022/09/30 13:21:34;;;;;;;17.05;10.85;;;;;;;;;;8209134;28;20113;-89
2022/09/30 13:25:54;;;;;;;16.80;10.75;;;;;;;;;;8213280;28;20475;-87
2022/09/30 13:29:57;;;;;;;18.02;11.52;;;;;;;;;;8210472;28;20484;-86
2022/09/30 13:34:11;;;;;;;15.75;9.55;;;;;;;;;;8334546;23;20085;-87
2022/09/30 13:38:20;;;;;;;14.68;9.52;;;;;;;;;;8227533;28;20055;-87
2022/09/30 13:42:28;;;;;;;14.20;8.57;;;;;;;;;;8229065;28;20090;-88
2022/09/30 13:46:35;;;;;;;12.50;8.00;;;;;;;;;;8236717;28;20050;-87
2022/09/30 13:50:45;;;;;;;11.90;7.75;;;;;;;;;;8235430;28;20063;-85
2022/09/30 13:54:53;;;;;;;16.77;9.55;;;;;;;;;;8231472;28;20058;-87
2022/09/30 13:59:30;;;;;;;20.23;11.60;;;;;;;;;;8232261;28;20051;-87
2022/09/30 14:03:55;;;;;;;20.92;12.05;;;;;;;;;;8201265;28;20050;-86
2022/09/30 14:08:24;;;;;;;17.25;9.35;;;;;;;;;;8233680;28;20129;-86
2022/09/30 14:12:41;;;;;;;16.48;8.75;;;;;;;;;;8231840;28;20102;-84
2022/09/30 14:17:18;;;;;;;18.35;11.32;;;;;;;;;;8233760;28;20050;-86
2022/09/30 14:21:36;;;;;;;17.65;10.80;;;;;;;;;;8230270;28;20462;-85
2022/09/30 14:25:49;;;;;;;16.42;9.43;;;;;;;;;;8229997;28;20138;-87
2022/09/30 14:30:03;;;;;;;17.13;10.27;;;;;;;;;;8232856;28;20054;-88
2022/09/30 14:34:14;;;;;;;23.48;13.38;;;;;;;;;;8232390;28;20185;-87
2022/09/30 14:38:21;;;;;;;22.90;11.82;;;;;;;;;;8215732;28;20055;-89
2022/09/30 14:42:30;;;;;;;22.45;12.00;;;;;;;;;;8216015;28;20209;-90
2022/09/30 14:46:41;;;;;;;13.60;8.85;;;;;;;;;;8232693;28;20072;-87
2022/09/30 14:50:53;;;;;;;16.83;9.73;;;;;;;;;;8211116;28;20047;-88
2022/09/30 14:54:59;;;;;;;18.85;10.35;;;;;;;;;;8216293;28;20050;-86
2022/09/30 14:59:18;;;;;;;16.10;9.50;;;;;;;;;;8211528;28;20632;-89
2022/09/30 15:03:22;;;;;;;14.95;9.05;;;;;;;;;;8229293;28;20053;-89
2022/09/30 15:07:25;;;;;;;18.58;11.10;;;;;;;;;;8229321;28;20050;-86
2022/09/30 15:11:28;;;;;;;19.17;10.68;;;;;;;;;;8232024;28;20512;-86
2022/09/30 15:15:35;;;;;;;19.33;11.60;;;;;;;;;;8227228;28;20518;-87
2022/09/30 15:19:43;;;;;;;18.58;11.40;;;;;;;;;;8228608;28;20066;-85
2022/09/30 15:23:50;;;;;;;18.83;10.20;;;;;;;;;;8232217;28;20082;-85
2022/09/30 15:27:53;;;;;;;21.25;11.48;;;;;;;;;;8233011;28;20066;-85
2022/09/30 15:32:01;;;;;;;16.27;9.75;;;;;;;;;;8229080;28;20054;-89
2022/09/30 15:36:25;;;;;;;22.38;11.23;;;;;;;;;;8218648;28;20150;-87
2022/09/30 15:44:47;;;;;;;33.63;17.58;;;;;;;;;;8215609;28;20066;-92
2022/09/30 15:48:50;;;;;;;21.58;11.20;;;;;;;;;;8206519;28;20403;-86
2022/09/30 15:52:57;;;;;;;21.63;11.20;;;;;;;;;;8217911;28;20506;-86
2022/09/30 15:57:02;;;;;;;29.13;16.95;;;;;;;;;;8199604;28;20065;-86
2022/09/30 16:01:27;;;;;;;21.67;13.25;;;;;;;;;;8218808;28;20078;-86
2022/09/30 16:05:32;;;;;;;21.80;12.13;;;;;;;;;;8210223;28;20079;-87
2022/09/30 16:09:40;;;;;;;22.88;13.35;;;;;;;;;;8208380;28;20069;-88
2022/09/30 16:13:44;;;;;;;19.50;12.45;;;;;;;;;;8209713;28;20085;-86
2022/09/30 16:17:53;;;;;;;27.17;15.13;;;;;;;;;;8212893;28;20117;-93
2022/09/30 16:22:04;;;;;;;20.60;11.82;;;;;;;;;;8211048;28;20069;-87
2022/09/30 16:26:27;;;;;;;21.92;11.45;;;;;;;;;;8204354;28;20158;-85
2022/09/30 16:39:24;;;;;;;29.25;15.60;;;;;;;;;;8197300;28;20118;-86
2022/09/30 16:43:28;;;;;;;26.55;13.80;;;;;;;;;;8208693;28;20091;-86
2022/09/30 16:47:35;;;;;;;31.95;16.65;;;;;;;;;;8200934;28;20496;-87
2022/09/30 16:51:43;;;;;;;30.38;15.05;;;;;;;;;;8200151;28;20059;-86
2022/09/30 16:55:47;;;;;;;26.10;14.10;;;;;;;;;;8204195;28;20145;-86
2022/09/30 16:59:54;;;;;;;29.13;15.77;;;;;;;;;;8202324;28;20066;-87
2022/09/30 17:04:04;;;;;;;43.80;24.52;;;;;;;;;;8408926;23;20067;-90
2022/09/30 17:08:16;;;;;;;36.50;19.92;;;;;;;;;;8183838;29;20129;-91
2022/09/30 17:12:22;;;;;;;25.60;14.15;;;;;;;;;;8165747;29;20524;-85
2022/09/30 17:16:29;;;;;;;27.05;13.93;;;;;;;;;;8156419;29;20207;-86
2022/09/30 17:20:35;;;;;;;39.67;20.95;;;;;;;;;;8165377;29;20074;-86
2022/09/30 17:51:53;;;;;;;30.33;15.25;;;;;;;;;;8219384;23;20047;-91
2022/09/30 17:56:03;;;;;;;31.35;15.48;;;;;;;;;;8172750;28;20100;-89
2022/09/30 18:00:09;;;;;;;38.80;18.33;;;;;;;;;;8201927;28;20055;-91
2022/09/30 18:04:24;;;;;;;44.05;20.60;;;;;;;;;;8187109;28;20067;-90
2022/09/30 18:08:30;;;;;;;45.40;20.20;;;;;;;;;;8191087;28;20151;-88
2022/09/30 18:12:35;;;;;;;37.67;18.35;;;;;;;;;;8188412;29;20086;-86
2022/09/30 18:16:37;;;;;;;40.38;18.15;;;;;;;;;;8193002;28;20074;-88
2022/09/30 18:20:43;;;;;;;66.70;28.10;;;;;;;;;;8206667;28;20420;-90
2022/09/30 18:29:35;;;;;;;40.67;17.53;;;;;;;;;;8395198;23;20701;-94
2022/09/30 18:34:13;;;;;;;37.83;18.20;;;;;;;;;;8191122;29;20174;-94
2022/09/30 18:43:46;;;;;;;49.38;21.13;;;;;;;;;;8220874;28;20083;-87
2022/09/30 18:47:48;;;;;;;37.83;16.02;;;;;;;;;;8223216;28;20063;-86
2022/09/30 18:51:51;;;;;;;38.63;17.05;;;;;;;;;;8224729;28;20059;-89
2022/09/30 18:55:54;;;;;;;39.70;16.00;;;;;;;;;;8230739;28;20058;-89
2022/09/30 19:00:00;;;;;;;42.70;16.13;;;;;;;;;;8207571;28;20102;-86
2022/09/30 19:04:06;;;;;;;40.55;17.63;;;;;;;;;;8205188;28;20058;-89
2022/09/30 19:16:26;;;;;;;45.63;18.60;;;;;;;;;;8195720;28;20061;-88
2022/09/30 19:20:30;;;;;;;39.92;17.70;;;;;;;;;;8192615;28;20447;-90
2022/09/30 19:24:32;;;;;;;47.45;17.38;;;;;;;;;;8180345;28;20054;-87
2022/09/30 19:28:36;;;;;;;45.72;17.27;;;;;;;;;;8190833;28;20058;-89
2022/09/30 19:32:41;;;;;;;58.00;19.80;;;;;;;;;;8193045;28;20110;-92
2022/09/30 19:51:38;;;;;;;61.17;22.27;;;;;;;;;;8071209;29;20141;-86
2022/09/30 19:55:41;;;;;;;55.15;24.08;;;;;;;;;;8182239;28;20609;-85
2022/09/30 19:59:44;;;;;;;59.15;25.20;;;;;;;;;;8193277;28;20530;-87
2022/09/30 20:03:47;;;;;;;60.55;23.58;;;;;;;;;;8166164;29;20511;-85
2022/09/30 20:07:52;;;;;;;50.40;21.98;;;;;;;;;;8170296;29;20115;-85
2022/09/30 20:11:58;;;;;;;58.25;23.67;;;;;;;;;;8174853;29;20051;-88
2022/09/30 20:16:03;;;;;;;48.35;16.33;;;;;;;;;;8172338;29;20082;-91
2022/09/30 20:24:36;;;;;;;72.77;22.70;;;;;;;;;;8176520;29;20105;-89
2022/09/30 20:28:40;;;;;;;64.57;18.27;;;;;;;;;;8175499;29;20168;-86
2022/09/30 20:32:45;;;;;;;48.80;17.55;;;;;;;;;;8182472;28;20103;-88
2022/09/30 20:36:49;;;;;;;65.47;20.63;;;;;;;;;;8178693;28;20051;-92
2022/09/30 20:40:59;;;;;;;70.60;22.20;;;;;;;;;;8179677;29;20055;-88
2022/09/30 20:45:05;;;;;;;66.20;20.10;;;;;;;;;;8177918;29;20082;-91
2022/09/30 20:49:10;;;;;;;70.03;20.02;;;;;;;;;;8187867;28;20078;-87
2022/09/30 20:53:16;;;;;;;77.35;21.70;;;;;;;;;;8182433;28;20058;-86
2022/09/30 20:57:22;;;;;;;74.30;19.45;;;;;;;;;;8182964;28;20484;-87
2022/09/30 21:01:29;;;;;;;85.35;21.92;;;;;;;;;;8182561;28;20066;-88
2022/09/30 21:05:32;;;;;;;71.78;19.77;;;;;;;;;;8181711;28;20138;-85
2022/09/30 21:09:37;;;;;;;69.00;17.98;;;;;;;;;;8182585;28;20055;-89
2022/09/30 21:13:49;;;;;;;75.18;17.60;;;;;;;;;;8182746;28;20063;-85
2022/09/30 21:17:56;;;;;;;82.70;19.65;;;;;;;;;;8188047;29;20055;-86
2022/09/30 21:21:59;;;;;;;102.38;21.80;;;;;;;;;;8187896;29;20059;-87
2022/09/30 21:26:06;;;;;;;84.88;22.23;;;;;;;;;;8190671;28;20692;-86
2022/09/30 21:30:15;;;;;;;67.30;17.83;;;;;;;;;;8187503;28;20105;-84
2022/09/30 21:34:21;;;;;;;67.90;17.30;;;;;;;;;;8187291;28;20134;-88
2022/09/30 21:38:24;;;;;;;84.70;20.40;;;;;;;;;;8187496;28;20047;-85
2022/09/30 21:42:29;;;;;;;82.22;18.08;;;;;;;;;;8187253;28;20065;-85
2022/09/30 21:46:36;;;;;;;71.32;16.75;;;;;;;;;;8187647;28;20152;-86
2022/09/30 21:50:39;;;;;;;93.90;25.17;;;;;;;;;;8186877;28;20183;-85
2022/09/30 21:54:43;;;;;;;90.05;16.70;;;;;;;;;;8203415;28;20119;-87
2022/09/30 21:58:50;;;;;;;80.25;20.85;;;;;;;;;;8186653;29;20059;-85
2022/09/30 22:03:00;;;;;;;105.93;23.30;;;;;;;;;;8186625;28;20542;-85
2022/09/30 22:07:05;;;;;;;70.28;17.45;;;;;;;;;;8203494;28;20066;-85
2022/09/30 22:11:10;;;;;;;93.97;16.85;;;;;;;;;;8186498;28;20067;-85
2022/09/30 22:15:14;;;;;;;75.15;20.02;;;;;;;;;;8186189;28;20069;-85
2022/09/30 22:19:22;;;;;;;98.78;19.45;;;;;;;;;;8192442;28;20062;-85
2022/09/30 22:23:25;;;;;;;103.05;18.88;;;;;;;;;;8203213;28;20083;-86
2022/09/30 22:27:30;;;;;;;119.80;19.08;;;;;;;;;;8192206;28;20067;-86
2022/09/30 22:31:37;;;;;;;119.53;17.67;;;;;;;;;;8185901;28;20059;-85
2022/09/30 22:40:04;;;;;;;135.57;32.20;;;;;;;;;;8186101;28;20128;-85
2022/09/30 22:44:08;;;;;;;155.82;30.58;;;;;;;;;;8185909;28;20099;-87
2022/09/30 22:48:13;;;;;;;116.57;20.65;;;;;;;;;;8185741;28;20150;-85
2022/09/30 22:52:18;;;;;;;106.47;16.95;;;;;;;;;;8185282;28;20102;-87
2022/09/30 22:56:21;;;;;;;95.15;16.20;;;;;;;;;;8185272;29;20062;-85
2022/09/30 23:00:26;;;;;;;164.82;18.83;;;;;;;;;;8184438;29;20549;-86
2022/09/30 23:04:31;;;;;;;162.43;20.13;;;;;;;;;;8183739;28;20055;-86
2022/09/30 23:08:40;;;;;;;133.73;17.17;;;;;;;;;;8184489;28;20063;-87
2022/09/30 23:12:43;;;;;;;82.45;16.67;;;;;;;;;;8184654;28;20051;-85
2022/09/30 23:16:47;;;;;;;103.20;14.98;;;;;;;;;;8184894;28;20550;-86
2022/09/30 23:20:56;;;;;;;121.05;16.73;;;;;;;;;;8184121;28;20063;-87
2022/09/30 23:25:02;;;;;;;117.80;15.98;;;;;;;;;;8185377;28;20058;-85
2022/09/30 23:29:07;;;;;;;135.82;16.02;;;;;;;;;;8185224;28;20059;-85
2022/09/30 23:33:12;;;;;;;147.60;15.90;;;;;;;;;;8183700;28;20411;-85
2022/09/30 23:37:18;;;;;;;143.60;18.10;;;;;;;;;;8184076;28;20082;-84
2022/09/30 23:41:26;;;;;;;154.35;16.25;;;;;;;;;;8183357;28;20555;-86
2022/09/30 23:45:31;;;;;;;119.20;15.45;;;;;;;;;;8183498;28;20059;-85
2022/09/30 23:49:37;;;;;;;101.32;15.57;;;;;;;;;;8183288;28;20411;-85
2022/09/30 23:53:44;;;;;;;147.02;15.30;;;;;;;;;;8183080;28;20055;-86
2022/09/30 23:57:52;;;;;;;140.88;17.45;;;;;;;;;;8183784;28;20091;-84
